Cristian Vega

Olheiro-Chefe - Betis
4 Jun 2028
Domingo
Processo

Personalidade

Adaptabilidade (5) Ambição (9) Controvérsia (10) Lealdade (9) Pressão (3) Profissionalismo (16) Espírito Esportivo (8) Temperamento (1)

Perfil

Estilo de Treinamento Democrático
Licença Continental C
Determinação 10
Gestão de Pessoas 15
Motivação 15
Disciplina 15
Satisfação no Trabalho
100%
Fadiga
0%
Função Olheiro-Chefe
Salário 36.7K p/s
Contrato 14.03.2029

Desempenho

Comportamento Bom
Eficácia do Treinamento
55%
Desenvolvimento do Jogador
60%
Prevenção de Lesões
70%
Implementação Tática
55%

Eventos Recentes

Avaliou um jogador agora
Observou uma partida agora
Avaliou um jogador agora

Monitorando agora

82
Jogador Clube Status Habilidade Confiança Observado Última observação Último voto
Sidiki Chérif Coventry City Ativo 140 / 143 40% 1 03.06.2028 -
Aarón Ochoa Málaga Ativo 114 / 117 40% 1 02.06.2028 -
André Miranda Porto Ativo 120 / 124 40% 1 02.06.2028 -
Ryunosuke Sato Valencia Ativo 126 / 129 40% 1 02.06.2028 -
Jorge Pulido Almería Perdido 118 / 130 72% 1 01.06.2028 -
Amir Mohammad Razzaghinia Esteghlal Ativo 124 / 128 40% 2 31.01.2028 -
Miguel Rodríguez Alavés Ativo 140 / 140 65% 1 31.01.2028 Aprovar
Jorrel Hato Chelsea Ativo 156 / 154 40% 1 31.01.2028 -
Andrey Ivlev Dinamo Moscow Ativo 117 / 116 40% 1 31.01.2028 -
Bazoumana Touré Newcastle United Ativo 153 / 156 40% 2 26.01.2028 -
Keny Arroyo Cruzeiro Ativo 123 / 128 40% 3 26.01.2028 -
Geovany Quenda Chelsea Ativo 155 / 159 40% 1 26.01.2028 -
Dylan Gorosito Boca Juniors Ativo 108 / 116 40% 3 25.01.2028 -
Lucas Bergvall Tottenham Ativo 158 / 154 40% 3 25.01.2028 -
Lewis Miley Leicester City Ativo 149 / 157 40% 3 25.01.2028 -
Franco Minerva Platense Ativo 121 / 127 40% 2 18.01.2028 -
Mateus Mané Wolverhampton Ativo 145 / 144 40% 1 18.01.2028 -
Pedro Zenit Ativo 132 / 142 40% 2 11.01.2028 -
Henrique Carmo CSKA Moscow Ativo 136 / 125 40% 1 11.01.2028 -
Ryan Oné Sheffield United Ativo 123 / 131 40% 1 10.01.2028 -
Dânio Djassi Portimonense Ativo 120 / 119 40% 1 10.01.2028 -
Dani Díaz Real Sociedad Ativo 119 / 130 40% 3 09.01.2028 -
Lander Astiazarán Real Sociedad Ativo 109 / 116 40% 1 09.01.2028 -
Edmund Baidoo Borussia Dortmund Ativo 133 / 136 40% 3 07.01.2028 -
Nicolás Barros Schelotto Gimnasia La Plata Ativo 125 / 128 40% 1 06.01.2028 -
Cundo Leicester City Ativo 135 / 144 40% 1 05.01.2028 -
Bahmed Deuff FC Metz Ativo 129 / 120 40% 1 04.01.2028 -
Kauã Moraes Cruzeiro Ativo 128 / 133 40% 1 30.08.2027 -
Amín Molinas Libertad Ativo 116 / 119 40% 2 26.08.2027 -
Agustín Obregón River Plate Ativo 116 / 125 40% 1 24.08.2027 -
Noah Streit CF Montreal Ativo 105 / 121 40% 4 21.08.2027 -
Konstantinos Karetsas Borussia Dortmund Ativo 136 / 141 40% 1 19.08.2027 -
Elias Baum Eintracht Frankfurt Ativo 141 / 127 40% 1 19.08.2027 -
Otto Stange Hamburger SV Ativo 126 / 128 40% 2 18.08.2027 -
Rodrigo Mora AS Roma Ativo 147 / 154 40% 1 17.08.2027 -
Christ Inao Oulaï Fiorentina Ativo 139 / 138 40% 1 16.08.2027 -
Seb Ferdinand Arsenal Ativo 122 / 129 40% 2 15.08.2027 -
Rabby Nzingoula West Bromwich Albion Ativo 113 / 130 40% 3 15.08.2027 -
Souza Tottenham Ativo 128 / 140 40% 9 14.08.2027 -
Kieran Morrison Liverpool Ativo 112 / 124 40% 1 12.08.2027 -
Sergiu Perciun Torino Ativo 116 / 118 40% 3 10.08.2027 -
Alisson Shakhtar Ativo 122 / 145 40% 1 10.08.2027 -
Brandon Powell Blackburn Rovers Ativo 118 / 114 40% 4 04.08.2027 -
Kendry Páez Chelsea Ativo 121 / 131 40% 1 03.08.2027 -
Abdelhamid Ait Boudlal Stade Rennais Ativo 122 / 119 40% 2 02.08.2027 -
Yoram Zague Paris Saint-Germain Ativo 126 / 122 40% 1 02.08.2027 -
Somto Boniface Ipswich Town Ativo 110 / 125 40% 3 01.08.2027 -
Morgan Dala New York Red Bulls Ativo 116 / 133 40% 3 25.07.2027 -
Alejandro Almaraz Oviedo Ativo 117 / 119 40% 3 22.07.2027 -
Robinio Vaz AS Roma Ativo 115 / 133 40% 1 22.07.2027 -
Rayan Bournemouth Ativo 137 / 143 40% 1 21.07.2027 -
Mateo Aguiar Defensa y Justicia Ativo 100 / 114 40% 1 18.07.2027 -
Vitor Reis Manchester City Ativo 145 / 142 40% 1 17.07.2027 -
Olti Hyseni Brondby Ativo 115 / 125 40% 1 17.07.2027 -
George Abbott Tottenham Ativo 116 / 117 40% 3 13.07.2027 -
Ishé Samuels-Smith Chelsea Ativo 126 / 133 40% 4 10.07.2027 -
Sabil Hansen Randers Ativo 116 / 106 40% 2 06.07.2027 -
Yasin Özcan Aston Villa Ativo 113 / 119 40% 2 03.07.2027 -
Samuele di Benedetto Union Berlin Ativo 111 / 116 40% 1 18.06.2027 -
Lewis Koumas Liverpool Ativo 116 / 117 40% 1 18.06.2027 -
Alysson Edward Aston Villa Ativo 129 / 121 40% 3 13.06.2027 -
Alejandro Catena Osasuna Ativo 145 / 132 55% 1 02.06.2027 -
Joaquin Seys Club Brugge Ativo 132 / 134 40% 4 30.01.2027 -
Breno Bidon Corinthians Ativo 141 / 137 40% 3 27.01.2027 -
Juan Giménez Athletic Bilbao Ativo 116 / 133 40% 1 27.01.2027 -
Cam Bragg Southampton Ativo 107 / 120 40% 1 20.01.2027 -
Emirhan Başyiğit Sivasspor Ativo 102 / 121 40% 1 20.01.2027 -
Lovro Zvonarek Estrela da Amadora Ativo 110 / 125 40% 1 20.01.2027 -
Honest Ahanor Fiorentina Ativo 121 / 140 40% 2 17.01.2027 -
Ignacio Perruzzi San Lorenzo Ativo 119 / 133 40% 3 16.01.2027 -
Tristan Degreef Anderlecht Ativo 132 / 125 40% 1 11.01.2027 -
Bobby Clark Derby County Ativo 114 / 133 40% 1 03.01.2027 -
Ollie Scarles West Ham United Ativo 139 / 138 40% 1 30.08.2026 -
Jonathan Asp-Jensen Deportivo La Coruña Ativo 125 / 120 40% 1 30.08.2026 -
Alex Matos Burnley Ativo 129 / 132 40% 1 27.08.2026 -
Halam Loboa Osasuna Ativo 106 / 124 40% 1 21.08.2026 -
Nahuel Herrera Porto Ativo 134 / 135 40% 1 21.08.2026 -
Jaydee Canvot Crystal Palace Ativo 126 / 133 40% 1 20.08.2026 -
Xavi Grande Levante Ativo 119 / 116 40% 1 18.08.2026 -
Jocelin Ta Bi Sunderland Ativo 97 / 111 40% 1 18.08.2026 -
Gonzalo Gómez Juventud Ativo 115 / 110 40% 1 04.08.2026 -
Juan Pablo De la Reta Maipú Ativo 104 / 111 40% 1 02.08.2026 -